createdAt,value
2024-01-10T00:00:47.452Z,57.05
2024-01-10T00:03:13.990Z,54.90
2024-01-10T00:05:40.402Z,52.95
2024-01-10T00:08:07.312Z,50.55
2024-01-10T00:10:33.776Z,57.15
2024-01-10T00:13:00.167Z,53.90
2024-01-10T00:15:26.577Z,55.45
2024-01-10T00:17:54.181Z,57.38
2024-01-10T00:20:20.725Z,56.58
2024-01-10T00:22:47.238Z,57.70
2024-01-10T00:25:13.956Z,58.50
2024-01-10T00:27:40.356Z,58.75
2024-01-10T00:30:07.292Z,61.85
2024-01-10T00:32:33.819Z,58.10
2024-01-10T00:35:00.352Z,59.70
2024-01-10T00:37:27.863Z,60.95
2024-01-10T00:39:54.240Z,62.75
2024-01-10T00:42:20.652Z,61.63
2024-01-10T00:44:47.121Z,64.00
2024-01-10T00:47:13.562Z,65.45
2024-01-10T00:49:40.152Z,64.90
2024-01-10T00:52:06.666Z,61.10
2024-01-10T00:54:33.053Z,64.85
2024-01-10T00:56:59.491Z,66.95
2024-01-10T00:59:26.043Z,62.22
2024-01-10T01:01:52.485Z,66.75
2024-01-10T01:04:18.904Z,66.55
2024-01-10T01:06:45.296Z,67.90
2024-01-10T01:09:13.463Z,66.55
2024-01-10T01:11:39.858Z,67.95
2024-01-10T01:14:06.294Z,67.35
2024-01-10T01:16:32.878Z,62.80
2024-01-10T01:18:59.394Z,64.80
2024-01-10T01:21:25.940Z,62.80
2024-01-10T01:23:52.389Z,64.75
2024-01-10T01:26:18.960Z,63.63
2024-01-10T01:28:45.494Z,63.67
2024-01-10T01:31:11.951Z,63.67
2024-01-10T01:33:40.212Z,63.80
2024-01-10T01:36:07.543Z,66.43
2024-01-10T01:38:33.939Z,64.05
2024-01-10T01:41:00.466Z,69.22
2024-01-10T01:43:27.309Z,62.55
2024-01-10T01:45:54.870Z,65.75
2024-01-10T01:48:22.100Z,64.82
2024-01-10T01:50:49.800Z,64.47
2024-01-10T01:53:16.425Z,66.68
2024-01-10T01:55:45.995Z,65.28
2024-01-10T01:58:13.576Z,66.75
2024-01-10T02:00:40.533Z,61.40
2024-01-10T02:03:07.985Z,64.03
2024-01-10T02:05:34.768Z,65.55
2024-01-10T02:08:01.392Z,69.55
2024-01-10T02:10:27.859Z,64.90
2024-01-10T02:12:54.361Z,66.85
2024-01-10T02:15:21.047Z,63.05
2024-01-10T02:17:47.560Z,65.03
2024-01-10T02:20:15.068Z,65.40
2024-01-10T02:22:41.589Z,66.32
2024-01-10T02:25:14.774Z,66.20
2024-01-10T02:27:41.803Z,66.38
2024-01-10T02:30:09.618Z,65.72
2024-01-10T02:32:36.445Z,63.08
2024-01-10T02:35:03.250Z,61.33
2024-01-10T02:37:29.811Z,59.05
2024-01-10T02:39:56.173Z,69.85
2024-01-10T02:42:22.614Z,59.83
2024-01-10T02:44:49.001Z,61.67
2024-01-10T02:47:16.302Z,61.53
2024-01-10T02:49:42.799Z,66.88
2024-01-10T02:52:09.233Z,65.78
2024-01-10T02:54:35.634Z,64.47
2024-01-10T02:57:02.030Z,68.75
2024-01-10T02:59:28.422Z,64.57
2024-01-10T03:01:54.852Z,66.72
2024-01-10T03:04:21.302Z,64.50
2024-01-10T03:06:47.690Z,63.63
2024-01-10T03:09:14.129Z,63.80
2024-01-10T03:11:40.510Z,62.60
2024-01-10T03:14:10.658Z,67.25
2024-01-10T03:16:37.302Z,58.72
2024-01-10T03:19:03.874Z,59.65
2024-01-10T03:21:30.517Z,63.15
2024-01-10T03:23:57.592Z,63.45
2024-01-10T03:26:24.658Z,63.38
2024-01-10T03:28:51.109Z,63.38
2024-01-10T03:31:18.063Z,62.70
2024-01-10T03:33:44.579Z,60.42
2024-01-10T03:36:12.791Z,63.22
2024-01-10T03:38:39.172Z,59.75
2024-01-10T03:41:05.614Z,60.17
2024-01-10T03:43:32.082Z,59.72
2024-01-10T03:45:58.937Z,62.13
2024-01-10T03:48:25.741Z,60.47
2024-01-10T03:50:52.223Z,55.83
2024-01-10T03:53:18.733Z,59.38
2024-01-10T03:55:45.224Z,57.05
2024-01-10T03:58:11.627Z,60.95
2024-01-10T04:00:38.127Z,58.70
2024-01-10T04:03:04.681Z,59.42
2024-01-10T04:05:31.793Z,60.15
2024-01-10T04:07:58.419Z,58.22
2024-01-10T04:10:24.869Z,58.88
2024-01-10T04:12:51.356Z,56.33
2024-01-10T04:15:18.911Z,57.92
2024-01-10T04:17:45.467Z,57.83
2024-01-10T04:20:12.222Z,58.90
2024-01-10T04:22:38.769Z,31.67
2024-01-10T04:25:06.993Z,29.05
2024-01-10T04:27:33.492Z,44.92
2024-01-10T04:30:00.045Z,53.28
2024-01-10T04:32:26.701Z,56.28
2024-01-10T04:34:53.275Z,58.20
2024-01-10T04:37:19.672Z,59.83
2024-01-10T04:39:46.547Z,63.78
2024-01-10T04:42:13.303Z,63.33
2024-01-10T04:44:39.861Z,63.08
2024-01-10T04:47:07.213Z,65.60
2024-01-10T04:49:33.788Z,65.95
2024-01-10T04:52:00.221Z,64.13
2024-01-10T04:54:26.626Z,65.60
2024-01-10T04:56:53.028Z,68.43
2024-01-10T04:59:19.534Z,68.78
2024-01-10T05:01:46.659Z,65.45
2024-01-10T05:04:13.102Z,67.32
2024-01-10T05:06:39.523Z,64.72
2024-01-10T05:09:05.910Z,65.55
2024-01-10T05:11:32.347Z,66.40
2024-01-10T05:13:58.838Z,66.22
2024-01-10T05:16:25.641Z,65.70
2024-01-10T05:18:52.085Z,66.68
2024-01-10T05:21:18.549Z,62.00
2024-01-10T05:23:44.954Z,64.38
2024-01-10T05:26:11.363Z,68.10
2024-01-10T05:28:37.889Z,63.65
2024-01-10T05:31:04.499Z,67.65
2024-01-10T05:33:31.340Z,66.15
2024-01-10T05:35:59.329Z,64.20
2024-01-10T05:38:25.997Z,67.53
2024-01-10T05:40:53.102Z,65.53
2024-01-10T05:43:19.674Z,60.22
2024-01-10T05:45:46.121Z,62.95
2024-01-10T05:48:12.656Z,63.15
2024-01-10T05:50:40.274Z,64.10
2024-01-10T05:53:06.826Z,62.78
2024-01-10T05:55:33.249Z,62.40
2024-01-10T05:57:59.748Z,58.38
2024-01-10T06:00:26.228Z,61.90
2024-01-10T06:02:52.743Z,62.83
2024-01-10T06:05:19.288Z,61.50
2024-01-10T06:07:45.856Z,62.28
2024-01-10T06:10:12.307Z,61.80
2024-01-10T06:12:39.276Z,58.85
2024-01-10T06:15:06.065Z,59.88
2024-01-10T06:17:32.895Z,60.35
2024-01-10T06:20:01.216Z,64.40
2024-01-10T06:22:30.448Z,61.75
2024-01-10T06:24:57.380Z,57.72
2024-01-10T06:27:23.851Z,62.97
2024-01-10T06:29:50.280Z,61.63
2024-01-10T06:32:16.794Z,60.95
2024-01-10T06:34:43.386Z,59.33
2024-01-10T06:37:10.056Z,59.55
2024-01-10T06:39:36.732Z,61.25
2024-01-10T06:42:07.169Z,58.47
2024-01-10T06:44:34.737Z,59.97
2024-01-10T06:47:01.214Z,60.88
2024-01-10T06:49:28.593Z,60.80
2024-01-10T06:51:55.018Z,57.15
2024-01-10T06:54:21.428Z,57.88
2024-01-10T06:56:48.221Z,58.83
2024-01-10T06:59:14.777Z,57.38
2024-01-10T07:01:41.252Z,55.63
2024-01-10T07:04:07.751Z,57.13
2024-01-10T07:06:34.303Z,55.28
2024-01-10T07:09:01.218Z,59.35
2024-01-10T07:11:29.435Z,61.55
2024-01-10T07:13:55.926Z,56.63
2024-01-10T07:16:22.428Z,60.88
2024-01-10T07:18:51.493Z,57.53
2024-01-10T07:21:18.487Z,58.15
2024-01-10T07:23:44.898Z,60.92
2024-01-10T07:26:13.991Z,60.42
2024-01-10T07:28:40.623Z,57.42
2024-01-10T07:31:07.168Z,61.55
2024-01-10T07:33:34.173Z,62.22
2024-01-10T07:36:02.028Z,59.40
2024-01-10T07:38:28.562Z,60.50
2024-01-10T07:40:55.072Z,62.30
2024-01-10T07:43:21.509Z,62.60
2024-01-10T07:45:47.945Z,62.90
2024-01-10T07:48:14.432Z,62.40
2024-01-10T07:50:40.853Z,61.80
2024-01-10T07:53:08.958Z,60.75
2024-01-10T07:55:35.625Z,64.95
2024-01-10T07:58:02.366Z,65.32
2024-01-10T08:00:31.162Z,64.22
2024-01-10T08:02:59.233Z,66.15
2024-01-10T08:05:26.228Z,64.22
2024-01-10T08:07:52.772Z,62.92
2024-01-10T08:10:19.263Z,64.03
2024-01-10T08:12:45.859Z,66.00
2024-01-10T08:15:12.299Z,62.15
2024-01-10T08:17:39.134Z,69.05
2024-01-10T08:20:07.621Z,59.35
2024-01-10T08:22:34.056Z,63.75
2024-01-10T08:25:00.482Z,63.20
2024-01-10T08:27:26.870Z,65.13
2024-01-10T08:29:53.289Z,63.30
2024-01-10T08:32:21.840Z,63.85
2024-01-10T08:34:48.774Z,63.47
2024-01-10T08:37:15.282Z,64.78
2024-01-10T08:39:44.017Z,65.45
2024-01-10T08:42:10.987Z,65.72
2024-01-10T08:44:37.399Z,70.47
2024-01-10T08:47:03.949Z,67.90
2024-01-10T08:49:30.445Z,68.72
2024-01-10T08:51:57.327Z,65.03
2024-01-10T08:54:24.057Z,67.50
2024-01-10T08:56:50.527Z,67.85
2024-01-10T08:59:17.009Z,76.25
2024-01-10T09:01:43.858Z,74.88
2024-01-10T09:04:10.426Z,70.32
2024-01-10T09:06:37.038Z,73.40
2024-01-10T09:09:03.851Z,71.55
2024-01-10T09:11:30.291Z,75.35
2024-01-10T09:13:56.717Z,75.53
2024-01-10T09:16:23.144Z,75.13
2024-01-10T09:18:51.034Z,75.47
2024-01-10T09:21:20.133Z,80.95
2024-01-10T09:23:46.501Z,77.35
2024-01-10T09:26:13.531Z,76.88
2024-01-10T09:28:41.330Z,79.43
2024-01-10T09:31:08.470Z,82.85
2024-01-10T09:33:35.269Z,86.53
2024-01-10T09:36:01.973Z,86.45
2024-01-10T09:38:28.498Z,87.07
2024-01-10T09:40:57.230Z,84.82
2024-01-10T09:43:23.703Z,91.15
2024-01-10T09:45:50.813Z,91.03
2024-01-10T09:48:17.385Z,94.30
2024-01-10T09:50:44.241Z,90.18
2024-01-10T09:53:14.810Z,91.07
2024-01-10T09:55:41.352Z,103.65
2024-01-10T09:58:09.863Z,106.60
2024-01-10T10:00:37.774Z,96.40
2024-01-10T10:03:08.880Z,96.85
2024-01-10T10:05:35.858Z,93.47
2024-01-10T10:08:04.004Z,94.80
2024-01-10T10:10:30.641Z,101.85
2024-01-10T10:12:57.014Z,102.53
2024-01-10T10:15:24.157Z,108.18
2024-01-10T10:17:51.931Z,127.07
2024-01-10T10:20:24.678Z,158.95
2024-01-10T10:23:04.339Z,90.65
2024-01-10T10:28:15.551Z,100.78
2024-01-10T10:30:47.263Z,107.35
2024-01-10T10:33:13.867Z,109.63
2024-01-10T10:35:43.376Z,116.22
2024-01-10T10:38:12.957Z,110.90
2024-01-10T10:40:40.216Z,122.38
2024-01-10T10:43:09.923Z,107.60
2024-01-10T10:45:36.830Z,115.95
2024-01-10T10:48:03.894Z,122.47
2024-01-10T10:50:35.450Z,140.60
2024-01-10T10:53:04.810Z,140.57
2024-01-10T10:55:33.020Z,142.75
2024-01-10T11:00:32.270Z,184.98
2024-01-10T11:02:58.762Z,206.55
2024-01-10T11:05:25.674Z,211.68
2024-01-10T11:10:31.140Z,294.63
2024-01-10T11:13:07.366Z,232.52
2024-01-10T11:15:42.714Z,213.45
2024-01-10T11:18:37.256Z,172.90
2024-01-10T11:21:15.790Z,170.77
2024-01-10T11:23:46.540Z,179.95
2024-01-10T11:26:14.446Z,194.90
2024-01-10T11:28:41.325Z,256.75
2024-01-10T11:31:09.545Z,199.50
2024-01-10T11:33:41.640Z,216.18
2024-01-10T11:36:18.060Z,225.95
2024-01-10T11:38:57.645Z,231.90
2024-01-10T11:41:31.644Z,239.02
2024-01-10T11:44:14.678Z,258.33
2024-01-10T11:46:42.556Z,214.40
2024-01-10T11:49:16.758Z,219.55
2024-01-10T11:51:46.324Z,295.90
2024-01-10T11:54:33.829Z,312.25
2024-01-10T12:06:53.815Z,352.40
2024-01-10T12:09:20.386Z,395.95
2024-01-10T12:11:50.002Z,402.83
2024-01-10T12:14:16.603Z,400.85
2024-01-10T12:16:43.278Z,400.52
2024-01-10T12:19:10.354Z,397.60
2024-01-10T12:21:37.117Z,394.05
2024-01-10T12:24:09.646Z,410.15
2024-01-10T12:26:37.204Z,386.45
2024-01-10T12:29:05.608Z,372.60
2024-01-10T12:31:32.095Z,398.20
2024-01-10T12:33:59.975Z,394.05
2024-01-10T12:36:26.846Z,341.42
2024-01-10T12:38:53.273Z,390.63
2024-01-10T12:41:21.066Z,370.17
2024-01-10T12:43:53.597Z,372.88
2024-01-10T12:46:20.227Z,379.83
2024-01-10T12:48:58.584Z,431.98
2024-01-10T12:51:25.473Z,435.52
2024-01-10T12:53:52.419Z,423.45
2024-01-10T12:56:21.827Z,435.90
2024-01-10T12:58:58.736Z,457.00
2024-01-10T13:01:26.070Z,452.35
2024-01-10T13:03:53.820Z,454.58
2024-01-10T13:06:23.817Z,459.92
2024-01-10T13:08:50.848Z,447.42
2024-01-10T13:11:17.495Z,452.35
2024-01-10T13:35:51.154Z,262.27
2024-01-10T13:38:17.708Z,234.65
2024-01-10T13:40:44.587Z,219.43
2024-01-10T13:43:11.042Z,201.73
2024-01-10T13:45:37.441Z,185.48
2024-01-10T13:48:04.770Z,169.68
2024-01-10T13:50:31.413Z,166.10
2024-01-10T13:52:57.986Z,164.15
2024-01-10T13:55:25.648Z,170.98
2024-01-10T13:57:52.915Z,171.40
2024-01-10T14:00:20.665Z,150.43
2024-01-10T14:02:47.210Z,149.95
2024-01-10T14:05:13.852Z,148.93
2024-01-10T14:07:40.933Z,155.18
2024-01-10T14:10:07.540Z,156.68
2024-01-10T14:12:34.334Z,157.23
2024-01-10T14:15:03.701Z,154.57
2024-01-10T14:17:30.339Z,153.73
2024-01-10T14:19:56.939Z,159.02
2024-01-10T14:22:30.308Z,231.73
2024-01-10T14:25:01.819Z,288.70
2024-01-10T14:27:29.566Z,295.25
2024-01-10T14:29:56.019Z,296.92
2024-01-10T14:32:22.532Z,301.00
2024-01-10T14:34:49.533Z,299.00
2024-01-10T14:37:18.431Z,305.48
2024-01-10T14:39:45.013Z,300.83
2024-01-10T14:42:11.438Z,296.40
2024-01-10T14:44:38.305Z,297.73
2024-01-10T14:47:11.089Z,291.60
2024-01-10T14:49:38.963Z,288.17
2024-01-10T14:52:05.689Z,287.95
2024-01-10T14:54:32.038Z,281.38
2024-01-10T14:56:58.476Z,277.45
2024-01-10T14:59:36.603Z,255.43
2024-01-10T15:02:08.302Z,268.45
2024-01-10T15:04:39.599Z,259.92
2024-01-10T15:07:06.291Z,261.55
2024-01-10T15:09:32.775Z,263.77
2024-01-10T15:11:59.169Z,261.77
2024-01-10T15:14:25.589Z,262.67
2024-01-10T15:16:52.041Z,247.32
2024-01-10T15:19:20.966Z,243.82
2024-01-10T15:21:47.504Z,237.85
2024-01-10T15:24:13.896Z,254.98
2024-01-10T15:26:40.422Z,230.38
2024-01-10T15:29:08.744Z,231.00
2024-01-10T15:31:36.237Z,246.73
2024-01-10T15:34:05.548Z,224.82
2024-01-10T15:36:31.945Z,215.00
2024-01-10T15:38:58.397Z,217.70
2024-01-10T15:41:24.841Z,222.13
2024-01-10T15:43:53.366Z,218.38
2024-01-10T15:46:22.999Z,225.45
2024-01-10T15:48:49.670Z,224.70
2024-01-10T15:51:16.717Z,222.05
2024-01-10T15:53:45.678Z,211.98
2024-01-10T15:56:12.628Z,219.57
2024-01-10T15:58:39.488Z,214.38
2024-01-10T16:01:07.066Z,225.20
2024-01-10T16:03:34.268Z,216.10
2024-01-10T16:06:02.223Z,218.55
2024-01-10T16:08:29.926Z,219.85
2024-01-10T16:10:56.403Z,213.70
2024-01-10T16:13:22.934Z,214.43
2024-01-10T16:15:53.806Z,218.02
2024-01-10T16:18:20.284Z,209.32
2024-01-10T16:20:46.720Z,207.02
2024-01-10T16:23:13.204Z,205.13
2024-01-10T16:25:39.691Z,200.43
2024-01-10T16:28:06.159Z,198.85
2024-01-10T16:30:32.613Z,191.90
2024-01-10T16:32:59.046Z,194.73
2024-01-10T16:35:25.473Z,198.80
2024-01-10T16:37:51.944Z,194.45
2024-01-10T16:40:18.406Z,192.57
2024-01-10T16:42:45.341Z,192.95
2024-01-10T16:45:11.791Z,187.48
2024-01-10T16:47:38.356Z,189.98
2024-01-10T16:50:05.239Z,184.48
2024-01-10T16:52:31.658Z,187.75
2024-01-10T16:55:00.763Z,179.95
2024-01-10T16:57:27.188Z,184.10
2024-01-10T16:59:53.581Z,188.32
2024-01-10T17:02:20.276Z,185.93
2024-01-10T17:04:46.843Z,185.65
2024-01-10T17:07:13.263Z,189.18
2024-01-10T17:09:40.161Z,184.23
2024-01-10T17:12:08.028Z,185.63
2024-01-10T17:14:34.426Z,191.18
2024-01-10T17:17:00.844Z,190.75
2024-01-10T17:19:27.285Z,189.38
2024-01-10T17:21:53.672Z,189.38
2024-01-10T17:24:20.092Z,184.27
2024-01-10T17:26:47.330Z,182.82
2024-01-10T17:29:13.833Z,183.88
2024-01-10T17:31:40.319Z,188.98
2024-01-10T17:34:06.749Z,178.52
2024-01-10T17:36:39.031Z,185.05
2024-01-10T17:39:05.877Z,185.20
2024-01-10T17:41:32.658Z,184.43
2024-01-10T17:44:00.090Z,186.68
2024-01-10T17:46:26.539Z,186.45
2024-01-10T17:48:53.510Z,187.85
2024-01-10T17:51:22.884Z,189.10
2024-01-10T17:53:50.077Z,190.18
2024-01-10T17:56:16.619Z,195.48
2024-01-10T17:58:43.304Z,193.38
2024-01-10T18:01:09.808Z,195.57
2024-01-10T18:03:36.232Z,189.93
2024-01-10T18:06:02.752Z,196.00
2024-01-10T18:08:29.219Z,192.90
2024-01-10T18:10:56.497Z,196.15
2024-01-10T18:13:23.120Z,196.80
2024-01-10T18:15:49.732Z,190.43
2024-01-10T18:18:16.186Z,191.77
2024-01-10T18:20:42.642Z,189.77
2024-01-10T18:23:09.112Z,189.73
2024-01-10T18:25:37.683Z,202.63
2024-01-10T18:28:05.554Z,191.15
2024-01-10T18:30:31.932Z,197.23
2024-01-10T18:33:00.414Z,192.18
2024-01-10T18:35:26.900Z,193.15
2024-01-10T18:37:53.551Z,192.35
2024-01-10T18:40:20.815Z,191.32
2024-01-10T18:42:47.220Z,192.73
2024-01-10T18:45:13.814Z,199.85
2024-01-10T18:47:40.321Z,190.43
2024-01-10T18:50:07.153Z,196.80
2024-01-10T18:52:33.645Z,195.90
2024-01-10T18:55:00.041Z,191.88
2024-01-10T18:57:27.590Z,201.10
2024-01-10T18:59:54.657Z,198.48
2024-01-10T19:02:21.220Z,193.00
2024-01-10T19:04:47.651Z,194.55
2024-01-10T19:07:14.102Z,189.52
2024-01-10T19:09:40.523Z,190.48
2024-01-10T19:12:09.280Z,192.50
2024-01-10T19:14:36.318Z,194.02
2024-01-10T19:17:02.919Z,194.93
2024-01-10T19:19:29.454Z,192.40
2024-01-10T19:21:55.929Z,193.40
2024-01-10T19:24:23.951Z,192.73
2024-01-10T19:26:50.415Z,190.85
2024-01-10T19:29:16.931Z,189.57
2024-01-10T19:31:43.380Z,194.77
2024-01-10T19:34:11.105Z,192.50
2024-01-10T19:36:37.669Z,193.73
2024-01-10T19:39:04.755Z,191.73
2024-01-10T19:41:31.252Z,191.77
2024-01-10T19:43:57.771Z,185.80
2024-01-10T19:46:24.536Z,185.85
2024-01-10T19:48:51.665Z,190.30
2024-01-10T19:51:18.228Z,184.00
2024-01-10T19:53:49.266Z,186.70
2024-01-10T19:56:16.852Z,184.25
2024-01-10T19:58:43.762Z,186.98
2024-01-10T20:01:10.601Z,187.80
2024-01-10T20:03:37.177Z,192.40
2024-01-10T20:06:04.146Z,188.88
2024-01-10T20:08:30.791Z,189.65
2024-01-10T20:10:57.588Z,195.45
2024-01-10T20:13:24.106Z,189.80
2024-01-10T20:15:50.682Z,193.57
2024-01-10T20:18:19.127Z,192.75
2024-01-10T20:20:45.718Z,181.80
2024-01-10T20:23:12.241Z,193.13
2024-01-10T20:25:39.150Z,187.05
2024-01-10T20:28:06.302Z,192.35
2024-01-10T20:30:32.800Z,190.85
2024-01-10T20:33:02.496Z,197.02
2024-01-10T20:35:29.314Z,200.23
2024-01-10T20:37:57.903Z,200.93
2024-01-10T20:40:24.384Z,201.98
2024-01-10T20:42:50.806Z,193.98
2024-01-10T20:45:20.097Z,207.63
2024-01-10T20:47:47.304Z,209.57
2024-01-10T20:50:13.992Z,203.52
2024-01-10T20:52:40.646Z,210.57
2024-01-10T20:55:07.192Z,208.90
2024-01-10T20:57:33.751Z,211.52
2024-01-10T21:00:04.549Z,195.73
2024-01-10T21:02:31.698Z,188.80
2024-01-10T21:04:58.371Z,179.45
2024-01-10T21:07:24.977Z,178.07
2024-01-10T21:09:51.500Z,179.50
2024-01-10T21:12:18.180Z,182.35
2024-01-10T21:14:46.389Z,173.38
2024-01-10T21:17:13.484Z,170.68
2024-01-10T21:19:43.282Z,171.77
2024-01-10T21:22:09.771Z,172.30
2024-01-10T21:24:37.926Z,167.95
2024-01-10T21:27:05.325Z,163.13
2024-01-10T21:29:31.912Z,169.23
2024-01-10T21:31:58.592Z,168.45
2024-01-10T21:34:25.139Z,172.18
2024-01-10T21:36:51.583Z,166.65
2024-01-10T21:39:18.102Z,164.43
2024-01-10T21:41:44.815Z,164.48
2024-01-10T21:44:11.336Z,163.45
2024-01-10T21:46:37.798Z,165.82
2024-01-10T21:49:04.251Z,159.32
2024-01-10T21:51:30.666Z,164.93
2024-01-10T21:53:57.042Z,157.82
2024-01-10T21:56:24.643Z,159.73
2024-01-10T21:58:51.287Z,156.15
2024-01-10T22:01:18.755Z,151.85
2024-01-10T22:03:45.518Z,154.52
2024-01-10T22:06:12.202Z,154.52
2024-01-10T22:08:39.039Z,155.27
2024-01-10T22:11:05.742Z,156.13
2024-01-10T22:13:32.215Z,151.45
2024-01-10T22:15:58.585Z,144.18
2024-01-10T22:18:25.225Z,143.85
2024-01-10T22:20:51.734Z,130.82
2024-01-10T22:23:18.205Z,128.70
2024-01-10T22:25:44.833Z,129.90
2024-01-10T22:28:11.413Z,129.70
2024-01-10T22:30:37.864Z,130.68
2024-01-10T22:33:04.680Z,130.82
2024-01-10T22:35:31.212Z,133.82
2024-01-10T22:37:57.897Z,131.35
2024-01-10T22:40:24.335Z,138.50
2024-01-10T22:42:53.344Z,135.20
2024-01-10T22:45:19.897Z,130.77
2024-01-10T22:47:46.412Z,132.52
2024-01-10T22:50:13.098Z,133.70
2024-01-10T22:52:39.722Z,129.20
2024-01-10T22:55:07.043Z,126.72
2024-01-10T22:57:33.763Z,124.43
2024-01-10T23:00:00.359Z,123.82
2024-01-10T23:02:27.169Z,126.78
2024-01-10T23:04:53.703Z,112.45
2024-01-10T23:07:20.190Z,120.53
2024-01-10T23:09:48.155Z,123.80
2024-01-10T23:12:14.721Z,121.50
2024-01-10T23:14:41.666Z,122.50
2024-01-10T23:17:09.380Z,120.78
2024-01-10T23:19:36.334Z,127.38
2024-01-10T23:22:02.798Z,118.90
2024-01-10T23:24:29.235Z,123.13
2024-01-10T23:26:55.693Z,136.20
2024-01-10T23:29:22.079Z,116.80
2024-01-10T23:31:53.294Z,122.28
2024-01-10T23:34:19.917Z,119.22
2024-01-10T23:36:46.342Z,152.95
2024-01-10T23:39:13.258Z,130.27
2024-01-10T23:41:43.853Z,129.35
2024-01-10T23:44:10.352Z,132.80
2024-01-10T23:46:36.793Z,140.98
2024-01-10T23:49:03.944Z,133.57
2024-01-10T23:51:30.664Z,122.03
2024-01-10T23:53:57.017Z,136.60
2024-01-10T23:56:23.510Z,132.88
2024-01-10T23:58:50.012Z,118.82
